createdAt,value
2023-04-21T00:00:45.265Z,96852.19
2023-04-21T00:06:09.575Z,96849.84
2023-04-21T00:11:30.514Z,96844.22
2023-04-21T00:16:52.803Z,96840.78
2023-04-21T00:22:15.027Z,96832.28
2023-04-21T00:27:36.075Z,96837.38
2023-04-21T00:32:58.660Z,96840.22
2023-04-21T00:38:19.213Z,96834.63
2023-04-21T00:44:00.442Z,96832.59
2023-04-21T00:49:24.275Z,96837.13
2023-04-21T00:54:45.809Z,96833.22
2023-04-21T01:00:08.929Z,96833.22
2023-04-21T01:05:31.980Z,96819.22
2023-04-21T01:10:52.755Z,96825.53
2023-04-21T01:16:19.645Z,96813.66
2023-04-21T01:21:41.608Z,96816.22
2023-04-21T01:27:02.276Z,96817.13
2023-04-21T01:32:26.813Z,96820.63
2023-04-21T01:37:47.698Z,96813.19
2023-04-21T01:43:09.189Z,96809.97
2023-04-21T01:48:30.332Z,96818.66
2023-04-21T01:53:51.169Z,96821.16
2023-04-21T01:59:11.900Z,96811.00
2023-04-21T02:04:33.043Z,96805.66
2023-04-21T02:09:53.940Z,96801.47
2023-04-21T02:15:14.649Z,96800.78
2023-04-21T02:20:35.433Z,96804.84
2023-04-21T02:25:56.343Z,96802.91
2023-04-21T02:31:18.774Z,96797.44
2023-04-21T02:36:39.782Z,96806.31
2023-04-21T02:42:00.678Z,96804.84
2023-04-21T02:47:21.902Z,96801.00
2023-04-21T02:52:42.602Z,96804.25
2023-04-21T02:58:03.276Z,96804.59
2023-04-21T03:03:24.233Z,96799.03
2023-04-21T03:08:45.878Z,96797.06
2023-04-21T03:14:06.802Z,96802.91
2023-04-21T03:19:27.965Z,96796.69
2023-04-21T03:24:49.305Z,96796.44
2023-04-21T03:30:11.045Z,96806.44
2023-04-21T03:35:32.185Z,96803.03
2023-04-21T03:40:53.224Z,96802.88
2023-04-21T03:46:19.657Z,96800.56
2023-04-21T03:51:40.605Z,96808.75
2023-04-21T03:57:01.410Z,96808.31
2023-04-21T04:02:23.622Z,96808.41
2023-04-21T04:07:45.310Z,96808.78
2023-04-21T04:13:06.294Z,96816.72
2023-04-21T04:18:27.031Z,96810.06
2023-04-21T04:23:49.768Z,96812.28
2023-04-21T04:29:10.723Z,96816.09
2023-04-21T04:34:32.710Z,96810.47
2023-04-21T04:39:53.975Z,96809.22
2023-04-21T04:45:16.667Z,96811.84
2023-04-21T04:50:37.566Z,96810.53
2023-04-21T04:56:01.362Z,96803.72
2023-04-21T05:01:22.529Z,96807.53
2023-04-21T05:06:43.381Z,96813.72
2023-04-21T05:12:04.367Z,96812.50
2023-04-21T05:17:25.710Z,96815.22
2023-04-21T05:22:46.277Z,96813.03
2023-04-21T05:28:07.020Z,96815.63
2023-04-21T05:33:27.821Z,96816.59
2023-04-21T05:38:48.484Z,96815.91
2023-04-21T05:44:09.092Z,96810.66
2023-04-21T05:49:29.813Z,96815.59
2023-04-21T05:54:50.605Z,96822.13
2023-04-21T06:00:12.053Z,96810.28
2023-04-21T06:05:33.231Z,96824.50
2023-04-21T06:10:54.133Z,96818.63
2023-04-21T06:16:14.934Z,96819.13
2023-04-21T06:21:35.641Z,96812.50
2023-04-21T06:26:56.349Z,96815.81
2023-04-21T06:32:17.013Z,96817.13
2023-04-21T06:37:37.878Z,96822.97
2023-04-21T06:42:58.787Z,96817.41
2023-04-21T06:48:19.554Z,96815.69
2023-04-21T06:53:40.216Z,96816.84
2023-04-21T06:59:00.979Z,96820.47
2023-04-21T07:04:21.762Z,96824.03
2023-04-21T07:09:42.384Z,96834.41
2023-04-21T07:15:03.369Z,96822.72
2023-04-21T07:20:24.393Z,96826.88
2023-04-21T07:25:45.022Z,96832.47
2023-04-21T07:31:05.913Z,96835.63
2023-04-21T07:36:29.725Z,96832.63
2023-04-21T07:41:51.738Z,96822.09
2023-04-21T07:47:12.670Z,96822.66
2023-04-21T07:52:33.623Z,96824.66
2023-04-21T07:57:54.749Z,96834.78
2023-04-21T08:03:16.587Z,96830.34
2023-04-21T08:08:37.739Z,96831.56
2023-04-21T08:13:58.368Z,96820.59
2023-04-21T08:19:19.289Z,96821.28
2023-04-21T08:24:40.310Z,96822.78
2023-04-21T08:30:01.035Z,96822.13
2023-04-21T08:35:21.718Z,96829.03
2023-04-21T08:40:42.613Z,96827.75
2023-04-21T08:46:07.823Z,96817.41
2023-04-21T08:51:28.827Z,96825.44
2023-04-21T08:56:49.606Z,96821.84
2023-04-21T09:02:16.293Z,96814.31
2023-04-21T09:07:39.446Z,96809.19
2023-04-21T09:13:07.815Z,96814.44
2023-04-21T09:18:36.896Z,96814.31
2023-04-21T09:23:57.814Z,96813.34
2023-04-21T09:29:18.759Z,96805.94
2023-04-21T09:34:42.982Z,96812.34
2023-04-21T09:40:05.422Z,96804.63
2023-04-21T09:45:38.901Z,96803.47
2023-04-21T09:51:25.607Z,96806.88
2023-04-21T09:56:44.729Z,96799.25
2023-04-21T10:02:07.602Z,96803.06
2023-04-21T10:07:28.655Z,96793.72
2023-04-21T10:12:51.226Z,96783.75
2023-04-21T10:18:23.171Z,96791.97
2023-04-21T10:23:45.510Z,96783.34
2023-04-21T10:29:07.198Z,96775.28
2023-04-21T10:34:41.228Z,96779.28
2023-04-21T10:40:02.063Z,96775.25
2023-04-21T10:45:25.946Z,96776.31
2023-04-21T10:50:48.909Z,96772.56
2023-04-21T10:56:11.160Z,96764.88
2023-04-21T11:01:32.262Z,96767.16
2023-04-21T11:07:20.236Z,96769.88
2023-04-21T11:12:41.688Z,96750.97
2023-04-21T11:18:03.453Z,96753.50
2023-04-21T11:23:24.273Z,96762.22
2023-04-21T11:28:49.635Z,96750.97
2023-04-21T11:34:10.442Z,96747.38
2023-04-21T11:39:31.260Z,96747.78
2023-04-21T11:44:54.955Z,96745.53
2023-04-21T11:50:32.351Z,96756.22
2023-04-21T11:55:54.680Z,96740.47
2023-04-21T12:01:17.288Z,96757.25
2023-04-21T12:06:38.249Z,96753.78
2023-04-21T12:11:59.930Z,96747.09
2023-04-21T12:17:20.988Z,96750.44
2023-04-21T12:22:42.211Z,96738.78
2023-04-21T12:28:03.010Z,96737.47
2023-04-21T12:33:23.889Z,96736.56
2023-04-21T12:38:45.212Z,96725.75
2023-04-21T12:44:06.491Z,96728.47
2023-04-21T12:49:27.474Z,96722.31
2023-04-21T12:54:48.564Z,96726.75
2023-04-21T13:00:12.344Z,96720.69
2023-04-21T13:05:33.353Z,96721.69
2023-04-21T13:10:55.432Z,96708.13
2023-04-21T13:16:17.138Z,96717.28
2023-04-21T13:21:38.166Z,96709.72
2023-04-21T13:26:59.626Z,96708.16
2023-04-21T13:32:21.466Z,96710.00
2023-04-21T13:37:42.405Z,96699.69
2023-04-21T13:43:03.179Z,96695.25
2023-04-21T13:48:24.400Z,96690.06
2023-04-21T13:53:45.125Z,96682.78
2023-04-21T13:59:06.637Z,96685.16
2023-04-21T14:04:27.444Z,96684.91
2023-04-21T14:09:50.937Z,96679.13
2023-04-21T14:15:13.424Z,96673.16
2023-04-21T14:20:34.409Z,96656.28
2023-04-21T14:25:55.467Z,96654.13
2023-04-21T14:31:16.250Z,96654.78
2023-04-21T14:36:37.384Z,96640.53
2023-04-21T14:41:58.282Z,96649.88
2023-04-21T14:47:19.381Z,96641.97
2023-04-21T14:52:39.982Z,96636.69
2023-04-21T14:58:00.808Z,96631.91
2023-04-21T15:03:21.586Z,96644.13
2023-04-21T15:08:42.734Z,96635.16
2023-04-21T15:14:03.528Z,96631.38
2023-04-21T15:19:31.407Z,96627.94
2023-04-21T15:24:53.876Z,96632.56
2023-04-21T15:30:15.756Z,96631.03
2023-04-21T15:35:36.449Z,96625.94
2023-04-21T15:41:01.290Z,96630.13
2023-04-21T15:46:22.612Z,96623.88
2023-04-21T15:51:43.333Z,96619.88
2023-04-21T15:57:04.430Z,96617.06
2023-04-21T16:02:25.468Z,96607.34
2023-04-21T16:07:46.730Z,96602.53
2023-04-21T16:13:07.364Z,96606.56
2023-04-21T16:18:28.193Z,96598.69
2023-04-21T16:23:48.945Z,96601.50
2023-04-21T16:29:10.032Z,96603.50
2023-04-21T16:34:30.918Z,96587.91
2023-04-21T16:39:53.371Z,96597.94
2023-04-21T16:45:14.205Z,96596.13
2023-04-21T16:50:34.903Z,96588.41
2023-04-21T16:55:55.957Z,96592.41
2023-04-21T17:01:16.545Z,96591.97
2023-04-21T17:06:37.149Z,96594.25
2023-04-21T17:11:57.921Z,96596.16
2023-04-21T17:17:18.667Z,96598.66
2023-04-21T17:22:40.766Z,96596.91
2023-04-21T17:28:01.912Z,96600.53
2023-04-21T17:33:22.660Z,96604.50
2023-04-21T17:38:43.615Z,96603.22
2023-04-21T17:44:04.905Z,96597.97
2023-04-21T17:49:26.450Z,96600.53
2023-04-21T17:54:47.360Z,96614.41
2023-04-21T18:00:08.693Z,96609.19
2023-04-21T18:05:29.674Z,96604.00
2023-04-21T18:10:50.724Z,96609.44
2023-04-21T18:16:11.494Z,96611.22
2023-04-21T18:21:32.955Z,96617.78
2023-04-21T18:26:53.834Z,96625.22
2023-04-21T18:32:14.886Z,96621.81
2023-04-21T18:37:35.729Z,96623.19
2023-04-21T18:42:56.964Z,96626.06
2023-04-21T18:48:17.942Z,96624.31
2023-04-21T18:53:38.815Z,96624.69
2023-04-21T18:58:59.899Z,96621.56
2023-04-21T19:04:20.831Z,96626.00
2023-04-21T19:09:42.172Z,96624.19
2023-04-21T19:15:03.886Z,96621.22
2023-04-21T19:20:24.574Z,96628.31
2023-04-21T19:25:46.309Z,96628.63
2023-04-21T19:31:07.404Z,96623.38
2023-04-21T19:36:28.423Z,96625.88
2023-04-21T19:41:49.178Z,96622.44
2023-04-21T19:47:09.832Z,96617.84
2023-04-21T19:52:30.577Z,96623.09
2023-04-21T19:57:51.710Z,96625.25
2023-04-21T20:03:13.236Z,96622.66
2023-04-21T20:08:35.597Z,96617.91
2023-04-21T20:13:56.373Z,96619.56
2023-04-21T20:19:17.880Z,96624.47
2023-04-21T20:24:38.907Z,96629.03
2023-04-21T20:30:00.132Z,96632.69
2023-04-21T20:35:20.833Z,96626.28
2023-04-21T20:40:41.708Z,96628.88
2023-04-21T20:46:03.291Z,96633.63
2023-04-21T20:51:24.090Z,96635.06
2023-04-21T20:56:44.909Z,96634.34
2023-04-21T21:02:05.686Z,96641.53
2023-04-21T21:07:26.972Z,96642.72
2023-04-21T21:12:47.657Z,96637.31
2023-04-21T21:18:08.444Z,96642.56
2023-04-21T21:23:29.334Z,96641.84
2023-04-21T21:28:50.666Z,96645.53
2023-04-21T21:34:11.609Z,96639.94
2023-04-21T21:39:32.286Z,96648.13
2023-04-21T21:44:53.090Z,96649.03
2023-04-21T21:50:13.697Z,96656.69
2023-04-21T21:55:34.485Z,96661.81
2023-04-21T22:00:55.453Z,96657.56
2023-04-21T22:06:17.297Z,96669.03
2023-04-21T22:11:38.383Z,96668.31
2023-04-21T22:16:59.376Z,96658.25
2023-04-21T22:22:20.377Z,96661.00
2023-04-21T22:27:41.432Z,96662.09
2023-04-21T22:33:02.171Z,96669.56
2023-04-21T22:38:22.941Z,96667.88
2023-04-21T22:43:43.559Z,96668.84
2023-04-21T22:49:05.242Z,96676.00
2023-04-21T22:54:26.117Z,96683.00
2023-04-21T22:59:47.319Z,96681.31
2023-04-21T23:05:08.776Z,96688.69
2023-04-21T23:10:30.083Z,96684.19
2023-04-21T23:15:51.033Z,96694.13
2023-04-21T23:21:12.554Z,96690.22
2023-04-21T23:26:33.235Z,96686.56
2023-04-21T23:31:54.021Z,96683.69
2023-04-21T23:37:14.808Z,96671.69
2023-04-21T23:42:36.267Z,96681.69
2023-04-21T23:47:57.270Z,96679.13
2023-04-21T23:53:17.973Z,96679.53
2023-04-21T23:58:38.641Z,96665.13
